createdAt,value
2017-07-10T00:00:40.603Z,88.61
2017-07-10T00:03:10.058Z,89.00
2017-07-10T00:05:39.539Z,89.21
2017-07-10T00:08:08.994Z,89.39
2017-07-10T00:10:38.464Z,89.35
2017-07-10T00:13:07.901Z,88.91
2017-07-10T00:15:37.361Z,87.72
2017-07-10T00:18:06.817Z,87.20
2017-07-10T00:20:36.257Z,86.93
2017-07-10T00:23:05.706Z,87.18
2017-07-10T00:25:35.157Z,87.18
2017-07-10T00:28:04.617Z,86.94
2017-07-10T00:30:34.078Z,86.85
2017-07-10T00:33:03.552Z,87.06
2017-07-10T00:35:33.025Z,87.41
2017-07-10T00:38:02.467Z,87.56
2017-07-10T00:40:31.919Z,87.91
2017-07-10T00:43:01.406Z,88.04
2017-07-10T00:45:31.122Z,88.15
2017-07-10T00:48:00.586Z,88.64
2017-07-10T00:50:30.033Z,88.94
2017-07-10T00:52:59.301Z,89.04
2017-07-10T00:55:28.759Z,89.48
2017-07-10T00:57:58.334Z,89.40
2017-07-10T01:00:27.774Z,89.32
2017-07-10T01:02:57.079Z,89.30
2017-07-10T01:05:26.524Z,89.02
2017-07-10T01:07:55.977Z,88.97
2017-07-10T01:10:25.257Z,88.74
2017-07-10T01:12:54.724Z,88.88
2017-07-10T01:15:24.159Z,89.38
2017-07-10T01:17:53.645Z,89.68
2017-07-10T01:20:23.100Z,90.16
2017-07-10T01:22:52.548Z,90.20
2017-07-10T01:25:22.007Z,90.49
2017-07-10T01:27:51.473Z,90.83
2017-07-10T01:30:20.918Z,91.18
2017-07-10T01:32:50.386Z,91.50
2017-07-10T01:35:19.850Z,91.64
2017-07-10T01:37:49.122Z,91.81
2017-07-10T01:40:18.571Z,92.04
2017-07-10T01:42:48.028Z,92.12
2017-07-10T01:45:17.489Z,92.56
2017-07-10T01:47:46.766Z,92.78
2017-07-10T01:50:16.220Z,92.71
2017-07-10T01:52:45.321Z,92.99
2017-07-10T01:55:14.782Z,93.15
2017-07-10T01:57:44.234Z,93.20
2017-07-10T02:00:14.413Z,93.36
2017-07-10T02:02:43.715Z,93.43
2017-07-10T02:05:12.812Z,93.58
2017-07-10T02:07:42.276Z,93.63
2017-07-10T02:10:11.712Z,93.67
2017-07-10T02:12:41.177Z,93.33
2017-07-10T02:15:10.629Z,92.57
2017-07-10T02:17:40.090Z,91.76
2017-07-10T02:20:09.560Z,91.78
2017-07-10T02:22:39.119Z,92.00
2017-07-10T02:25:08.578Z,92.17
2017-07-10T02:27:38.034Z,92.21
2017-07-10T02:30:07.485Z,92.28
2017-07-10T02:32:36.934Z,92.33
2017-07-10T02:35:06.392Z,92.39
2017-07-10T02:37:35.852Z,92.52
2017-07-10T02:40:05.307Z,92.59
2017-07-10T02:42:34.756Z,92.70
2017-07-10T02:45:04.021Z,92.74
2017-07-10T02:47:33.505Z,92.75
2017-07-10T02:50:02.616Z,92.80
2017-07-10T02:52:32.061Z,92.83
2017-07-10T02:55:01.529Z,92.91
2017-07-10T02:57:30.980Z,92.79
2017-07-10T03:00:00.455Z,92.68
2017-07-10T03:02:29.914Z,92.75
2017-07-10T03:04:59.359Z,92.72
2017-07-10T03:07:28.817Z,92.81
2017-07-10T03:09:58.323Z,92.78
2017-07-10T03:12:27.765Z,92.72
2017-07-10T03:14:57.224Z,92.64
2017-07-10T03:17:26.666Z,92.57
2017-07-10T03:19:56.113Z,92.61
2017-07-10T03:22:25.571Z,92.50
2017-07-10T03:24:55.022Z,92.32
2017-07-10T03:27:24.491Z,92.26
2017-07-10T03:29:53.600Z,92.28
2017-07-10T03:32:22.739Z,92.34
2017-07-10T03:34:52.184Z,92.39
2017-07-10T03:37:21.316Z,92.37
2017-07-10T03:39:50.753Z,92.35
2017-07-10T03:42:20.227Z,92.26
2017-07-10T03:44:49.685Z,91.99
2017-07-10T03:47:19.141Z,91.61
2017-07-10T03:49:48.589Z,91.56
2017-07-10T03:52:18.047Z,91.54
2017-07-10T03:54:47.506Z,91.57
2017-07-10T03:57:16.985Z,91.21
2017-07-10T03:59:46.435Z,91.05
2017-07-10T04:02:15.885Z,90.72
2017-07-10T04:04:45.347Z,89.76
2017-07-10T04:07:15.051Z,89.40
2017-07-10T04:09:44.526Z,89.04
2017-07-10T04:12:13.966Z,89.02
2017-07-10T04:14:43.424Z,89.22
2017-07-10T04:17:12.870Z,89.18
2017-07-10T04:19:42.326Z,88.14
2017-07-10T04:22:11.775Z,88.01
2017-07-10T04:24:41.237Z,87.48
2017-07-10T04:27:10.685Z,86.75
2017-07-10T04:29:40.148Z,86.91
2017-07-10T04:32:09.598Z,86.41
2017-07-10T04:34:38.859Z,85.28
2017-07-10T04:37:08.604Z,84.35
2017-07-10T04:39:38.386Z,84.49
2017-07-10T04:42:08.140Z,85.46
2017-07-10T04:44:37.606Z,86.54
2017-07-10T04:47:07.081Z,86.76
2017-07-10T04:49:36.553Z,86.55
2017-07-10T04:52:06.007Z,85.82
2017-07-10T04:54:35.470Z,85.67
2017-07-10T04:57:04.958Z,85.39
2017-07-10T04:59:34.402Z,85.12
2017-07-10T05:02:03.845Z,83.60
2017-07-10T05:04:33.311Z,83.99
2017-07-10T05:07:02.764Z,83.64
2017-07-10T05:09:32.237Z,83.79
2017-07-10T05:12:01.752Z,84.08
2017-07-10T05:14:31.205Z,83.90
2017-07-10T05:17:00.678Z,83.57
2017-07-10T05:19:30.146Z,83.36
2017-07-10T05:21:59.611Z,83.36
2017-07-10T05:24:29.049Z,82.85
2017-07-10T05:26:58.554Z,82.91
2017-07-10T05:29:27.980Z,83.20
2017-07-10T05:31:57.437Z,82.26
2017-07-10T05:34:26.893Z,83.14
2017-07-10T05:36:56.333Z,82.30
2017-07-10T05:39:25.794Z,81.46
2017-07-10T05:41:55.249Z,81.14
2017-07-10T05:44:24.693Z,79.84
2017-07-10T05:46:54.166Z,78.08
2017-07-10T05:49:23.627Z,77.53
2017-07-10T05:51:53.070Z,74.64
2017-07-10T05:54:22.517Z,73.55
2017-07-10T05:56:51.986Z,74.20
2017-07-10T05:59:21.422Z,74.10
2017-07-10T06:01:50.885Z,74.91
2017-07-10T06:04:20.338Z,75.63
2017-07-10T06:06:49.790Z,73.44
2017-07-10T06:09:19.234Z,72.51
2017-07-10T06:11:48.691Z,71.05
2017-07-10T06:14:18.138Z,71.92
2017-07-10T06:16:47.606Z,69.98
2017-07-10T06:19:17.052Z,68.82
2017-07-10T06:21:46.508Z,69.25
2017-07-10T06:24:15.963Z,68.58
2017-07-10T06:26:47.054Z,67.50
2017-07-10T06:29:16.515Z,66.77
2017-07-10T06:31:45.953Z,66.87
2017-07-10T06:34:15.405Z,66.46
2017-07-10T06:36:44.913Z,66.85
2017-07-10T06:39:14.178Z,66.23
2017-07-10T06:41:43.644Z,65.62
2017-07-10T06:44:13.190Z,65.72
2017-07-10T06:46:42.657Z,65.71
2017-07-10T06:49:11.912Z,64.11
2017-07-10T06:51:41.363Z,63.27
2017-07-10T06:54:10.810Z,64.79
2017-07-10T06:56:40.251Z,63.54
2017-07-10T06:59:09.708Z,64.65
2017-07-10T07:01:39.154Z,64.62
2017-07-10T07:04:08.619Z,65.51
2017-07-10T07:06:38.059Z,64.67
2017-07-10T07:09:07.530Z,65.00
2017-07-10T07:11:37.001Z,65.70
2017-07-10T07:14:06.474Z,64.60
2017-07-10T07:16:35.930Z,63.50
2017-07-10T07:19:05.380Z,64.57
2017-07-10T07:21:34.825Z,64.71
2017-07-10T07:24:04.281Z,64.44
2017-07-10T07:26:33.728Z,63.42
2017-07-10T07:29:03.175Z,62.96
2017-07-10T07:31:32.700Z,62.17
2017-07-10T07:34:02.129Z,62.49
2017-07-10T07:36:31.592Z,60.89
2017-07-10T07:39:01.034Z,60.84
2017-07-10T07:41:30.482Z,59.79
2017-07-10T07:43:59.937Z,60.74
2017-07-10T07:46:29.390Z,59.70
2017-07-10T07:48:58.846Z,59.73
2017-07-10T07:51:28.295Z,60.12
2017-07-10T07:53:57.743Z,61.11
2017-07-10T07:56:27.193Z,60.38
2017-07-10T07:58:57.450Z,59.60
2017-07-10T08:01:26.916Z,59.13
2017-07-10T08:03:56.402Z,59.87
2017-07-10T08:06:25.864Z,60.17
2017-07-10T08:08:55.288Z,59.75
2017-07-10T08:11:24.749Z,59.06
2017-07-10T08:13:54.207Z,59.96
2017-07-10T08:16:23.655Z,59.74
2017-07-10T08:18:53.109Z,59.10
2017-07-10T08:21:22.540Z,59.87
2017-07-10T08:23:51.977Z,58.55
2017-07-10T08:26:21.437Z,56.75
2017-07-10T08:28:50.893Z,57.51
2017-07-10T08:31:20.327Z,56.14
2017-07-10T08:33:49.775Z,54.98
2017-07-10T08:36:19.406Z,55.53
2017-07-10T08:38:48.951Z,56.01
2017-07-10T08:41:18.401Z,56.27
2017-07-10T08:43:47.850Z,56.04
2017-07-10T08:46:17.294Z,54.48
2017-07-10T08:48:46.767Z,54.52
2017-07-10T08:51:16.215Z,55.24
2017-07-10T08:53:45.671Z,53.67
2017-07-10T08:56:15.120Z,52.77
2017-07-10T08:58:44.585Z,50.92
2017-07-10T09:01:14.026Z,51.01
2017-07-10T09:03:43.157Z,52.90
2017-07-10T09:06:12.628Z,51.14
2017-07-10T09:08:42.072Z,50.88
2017-07-10T09:11:11.547Z,50.42
2017-07-10T09:13:40.993Z,51.14
2017-07-10T09:16:10.457Z,50.51
2017-07-10T09:18:39.926Z,51.02
2017-07-10T09:21:09.400Z,52.42
2017-07-10T09:23:38.848Z,52.72
2017-07-10T09:26:08.309Z,51.69
2017-07-10T09:28:37.773Z,49.73
2017-07-10T09:31:07.225Z,48.69
2017-07-10T09:33:36.681Z,48.90
2017-07-10T09:36:06.152Z,51.36
2017-07-10T09:38:35.601Z,51.63
2017-07-10T09:41:05.064Z,50.72
2017-07-10T09:43:34.526Z,50.60
2017-07-10T09:46:03.980Z,52.17
2017-07-10T09:48:33.441Z,50.46
2017-07-10T09:51:02.892Z,52.11
2017-07-10T09:53:33.257Z,49.65
2017-07-10T09:56:02.895Z,50.79
2017-07-10T09:58:32.325Z,50.81
2017-07-10T10:01:01.785Z,50.68
2017-07-10T10:03:31.246Z,52.29
2017-07-10T10:06:00.690Z,53.02
2017-07-10T10:08:30.161Z,51.33
2017-07-10T10:10:59.602Z,54.01
2017-07-10T10:13:29.785Z,53.79
2017-07-10T10:15:59.246Z,52.55
2017-07-10T10:18:28.693Z,53.29
2017-07-10T10:20:57.828Z,54.39
2017-07-10T10:23:27.257Z,55.56
2017-07-10T10:25:56.713Z,52.55
2017-07-10T10:28:26.158Z,49.77
2017-07-10T10:30:55.607Z,53.08
2017-07-10T10:33:25.054Z,53.66
2017-07-10T10:35:54.505Z,53.90
2017-07-10T10:38:23.962Z,53.24
2017-07-10T10:40:53.421Z,54.35
2017-07-10T10:43:22.889Z,54.19
2017-07-10T10:45:52.342Z,54.76
2017-07-10T10:48:21.794Z,54.30
2017-07-10T10:50:51.247Z,52.90
2017-07-10T10:53:20.702Z,53.55
2017-07-10T10:55:50.152Z,53.47
2017-07-10T10:58:19.603Z,53.88
2017-07-10T11:00:49.072Z,52.95
2017-07-10T11:03:18.538Z,52.67
2017-07-10T11:05:48.001Z,52.47
2017-07-10T11:08:17.489Z,51.93
2017-07-10T11:10:46.940Z,50.94
2017-07-10T11:13:16.400Z,52.02
2017-07-10T11:15:46.149Z,50.59
2017-07-10T11:18:15.401Z,50.87
2017-07-10T11:20:44.866Z,50.03
2017-07-10T11:23:14.321Z,50.60
2017-07-10T11:25:43.765Z,51.44
2017-07-10T11:28:13.206Z,51.77
2017-07-10T11:30:42.657Z,50.15
2017-07-10T11:33:12.122Z,49.21
2017-07-10T11:35:41.566Z,49.84
2017-07-10T11:38:11.016Z,48.90
2017-07-10T11:40:40.487Z,49.07
2017-07-10T11:43:09.925Z,48.79
2017-07-10T11:45:39.377Z,48.92
2017-07-10T11:48:08.825Z,49.06
2017-07-10T11:50:38.275Z,47.57
2017-07-10T11:53:07.812Z,48.71
2017-07-10T11:55:37.249Z,49.07
2017-07-10T11:58:06.695Z,46.30
2017-07-10T12:00:36.144Z,48.34
2017-07-10T12:03:05.681Z,47.51
2017-07-10T12:05:35.121Z,46.34
2017-07-10T12:08:04.566Z,47.31
2017-07-10T12:10:34.019Z,48.36
2017-07-10T12:13:03.278Z,49.15
2017-07-10T12:15:32.989Z,47.88
2017-07-10T12:18:02.445Z,49.05
2017-07-10T12:20:31.901Z,47.44
2017-07-10T12:23:01.353Z,47.84
2017-07-10T12:25:30.803Z,46.84
2017-07-10T12:28:00.274Z,47.60
2017-07-10T12:30:29.728Z,45.84
2017-07-10T12:32:59.194Z,43.41
2017-07-10T12:35:28.638Z,42.47
2017-07-10T12:37:58.094Z,41.69
2017-07-10T12:40:27.525Z,40.25
2017-07-10T12:42:56.978Z,40.02
2017-07-10T12:45:26.449Z,38.52
2017-07-10T12:47:55.995Z,36.99
2017-07-10T12:50:25.453Z,34.91
2017-07-10T12:52:54.906Z,34.64
2017-07-10T12:55:24.338Z,36.19
2017-07-10T12:57:53.799Z,35.12
2017-07-10T13:00:23.242Z,36.71
2017-07-10T13:02:52.698Z,35.69
2017-07-10T13:05:22.144Z,36.29
2017-07-10T13:07:51.625Z,34.92
2017-07-10T13:10:21.117Z,36.63
2017-07-10T13:12:51.421Z,34.13
2017-07-10T13:15:20.682Z,34.98
2017-07-10T13:17:50.142Z,36.37
2017-07-10T13:20:19.602Z,37.46
2017-07-10T13:22:49.073Z,37.99
2017-07-10T13:25:18.527Z,35.94
2017-07-10T13:27:47.981Z,33.49
2017-07-10T13:30:17.449Z,32.88
2017-07-10T13:32:46.901Z,33.18
2017-07-10T13:35:16.348Z,39.04
2017-07-10T13:37:45.805Z,36.86
2017-07-10T13:40:15.250Z,32.92
2017-07-10T13:42:44.715Z,29.22
2017-07-10T13:45:14.227Z,29.08
2017-07-10T13:47:43.684Z,29.21
2017-07-10T13:50:13.141Z,29.62
2017-07-10T13:52:42.603Z,29.25
2017-07-10T13:55:12.090Z,29.80
2017-07-10T13:57:41.521Z,28.74
2017-07-10T14:00:10.968Z,29.37
2017-07-10T14:02:40.421Z,30.60
2017-07-10T14:05:09.870Z,31.03
2017-07-10T14:07:39.313Z,31.60
2017-07-10T14:10:08.770Z,30.09
2017-07-10T14:12:38.230Z,32.34
2017-07-10T14:15:07.682Z,31.87
2017-07-10T14:17:36.776Z,33.08
2017-07-10T14:20:06.241Z,33.97
2017-07-10T14:22:35.701Z,33.46
2017-07-10T14:25:05.166Z,31.89
2017-07-10T14:27:34.625Z,30.37
2017-07-10T14:30:04.187Z,30.54
2017-07-10T14:32:33.658Z,29.88
2017-07-10T14:35:03.114Z,29.72
2017-07-10T14:37:32.567Z,29.22
2017-07-10T14:40:02.021Z,28.02
2017-07-10T14:42:31.477Z,28.97
2017-07-10T14:45:00.935Z,31.74
2017-07-10T14:47:30.434Z,31.07
2017-07-10T14:49:59.878Z,30.49
2017-07-10T14:52:29.321Z,30.87
2017-07-10T14:54:58.785Z,31.60
2017-07-10T14:57:28.217Z,31.94
2017-07-10T14:59:57.674Z,28.54
2017-07-10T15:02:27.137Z,30.62
2017-07-10T15:04:56.627Z,27.58
2017-07-10T15:07:26.107Z,26.71
2017-07-10T15:09:55.399Z,28.77
2017-07-10T15:12:24.866Z,30.03
2017-07-10T15:14:54.594Z,30.16
2017-07-10T15:17:25.151Z,27.58
2017-07-10T15:19:54.792Z,31.31
2017-07-10T15:22:24.317Z,28.91
2017-07-10T15:24:54.067Z,28.53
2017-07-10T15:27:23.515Z,29.29
2017-07-10T15:29:53.032Z,29.50
2017-07-10T15:32:22.502Z,29.77
2017-07-10T15:34:52.006Z,28.14
2017-07-10T15:37:21.261Z,29.36
2017-07-10T15:39:50.717Z,27.23
2017-07-10T15:42:20.241Z,26.42
2017-07-10T15:44:49.674Z,27.46
2017-07-10T15:47:19.124Z,28.02
2017-07-10T15:49:48.567Z,28.72
2017-07-10T15:52:18.069Z,29.67
2017-07-10T15:54:47.510Z,32.74
2017-07-10T15:57:16.974Z,34.63
2017-07-10T15:59:46.501Z,35.41
2017-07-10T16:02:15.946Z,35.84
2017-07-10T16:04:45.397Z,36.68
2017-07-10T16:07:14.870Z,38.12
2017-07-10T16:09:44.125Z,37.28
2017-07-10T16:12:13.635Z,34.92
2017-07-10T16:14:43.077Z,33.79
2017-07-10T16:17:12.531Z,31.53
2017-07-10T16:19:41.986Z,31.10
2017-07-10T16:22:11.437Z,31.87
2017-07-10T16:24:40.885Z,33.17
2017-07-10T16:27:10.327Z,34.64
2017-07-10T16:29:39.918Z,34.42
2017-07-10T16:32:09.409Z,36.62
2017-07-10T16:34:38.837Z,35.13
2017-07-10T16:37:08.369Z,34.05
2017-07-10T16:39:37.808Z,36.04
2017-07-10T16:42:07.266Z,38.35
2017-07-10T16:44:36.726Z,38.05
2017-07-10T16:47:06.203Z,38.89
2017-07-10T16:49:35.627Z,39.54
2017-07-10T16:52:05.094Z,39.96
2017-07-10T16:54:34.538Z,40.78
2017-07-10T16:57:03.991Z,41.82
2017-07-10T16:59:33.458Z,42.21
2017-07-10T17:02:02.915Z,41.80
2017-07-10T17:04:32.371Z,39.50
2017-07-10T17:07:01.821Z,37.47
2017-07-10T17:09:31.283Z,35.74
2017-07-10T17:12:00.727Z,34.13
2017-07-10T17:14:30.157Z,34.00
2017-07-10T17:16:59.619Z,33.87
2017-07-10T17:19:29.077Z,33.26
2017-07-10T17:21:58.518Z,33.33
2017-07-10T17:24:27.953Z,34.67
2017-07-10T17:26:57.407Z,33.79
2017-07-10T17:29:26.863Z,33.74
2017-07-10T17:31:56.340Z,34.30
2017-07-10T17:34:25.782Z,35.40
2017-07-10T17:36:55.239Z,35.04
2017-07-10T17:39:24.691Z,35.82
2017-07-10T17:41:54.149Z,35.42
2017-07-10T17:44:23.602Z,36.26
2017-07-10T17:46:53.064Z,35.52
2017-07-10T17:49:22.509Z,35.81
2017-07-10T17:51:51.966Z,36.19
2017-07-10T17:54:21.426Z,36.26
2017-07-10T17:56:50.867Z,36.01
2017-07-10T17:59:20.332Z,36.20
2017-07-10T18:01:49.776Z,36.62
2017-07-10T18:04:19.223Z,37.44
2017-07-10T18:06:48.679Z,37.04
2017-07-10T18:09:18.141Z,37.38
2017-07-10T18:11:48.433Z,37.96
2017-07-10T18:14:17.895Z,38.38
2017-07-10T18:16:47.349Z,39.34
2017-07-10T18:19:16.846Z,39.96
2017-07-10T18:21:46.282Z,40.75
2017-07-10T18:24:15.804Z,41.70
2017-07-10T18:26:45.269Z,41.88
2017-07-10T18:29:14.714Z,42.72
2017-07-10T18:31:44.171Z,42.66
2017-07-10T18:34:13.644Z,43.05
2017-07-10T18:36:43.105Z,43.62
2017-07-10T18:39:12.554Z,44.40
2017-07-10T18:41:42.008Z,46.08
2017-07-10T18:44:11.482Z,46.83
2017-07-10T18:46:41.167Z,47.47
2017-07-10T18:49:10.650Z,48.48
2017-07-10T18:51:40.903Z,50.21
2017-07-10T18:54:10.350Z,52.03
2017-07-10T18:56:39.857Z,53.25
2017-07-10T18:59:09.295Z,54.36
2017-07-10T19:01:38.755Z,55.07
2017-07-10T19:04:08.198Z,55.75
2017-07-10T19:06:37.645Z,56.35
2017-07-10T19:09:07.186Z,56.53
2017-07-10T19:11:36.619Z,56.74
2017-07-10T19:14:06.119Z,56.75
2017-07-10T19:16:35.577Z,57.39
2017-07-10T19:19:05.015Z,57.34
2017-07-10T19:21:34.483Z,59.24
2017-07-10T19:24:03.959Z,61.18
2017-07-10T19:26:33.418Z,62.27
2017-07-10T19:29:02.913Z,62.41
2017-07-10T19:31:32.359Z,62.18
2017-07-10T19:34:01.813Z,62.73
2017-07-10T19:36:31.272Z,63.04
2017-07-10T19:39:00.936Z,64.70
2017-07-10T19:41:30.402Z,63.21
2017-07-10T19:43:59.862Z,62.28
2017-07-10T19:46:29.403Z,61.50
2017-07-10T19:48:58.843Z,61.91
2017-07-10T19:51:28.716Z,61.48
2017-07-10T19:53:58.397Z,63.25
2017-07-10T19:56:27.884Z,65.86
2017-07-10T19:58:57.427Z,68.40
2017-07-10T20:01:26.701Z,67.15
2017-07-10T20:03:56.333Z,66.88
2017-07-10T20:06:25.906Z,66.51
2017-07-10T20:08:55.598Z,66.20
2017-07-10T20:11:25.216Z,66.84
2017-07-10T20:13:54.668Z,71.37
2017-07-10T20:16:24.130Z,74.30
2017-07-10T20:18:54.525Z,76.54
2017-07-10T20:21:24.679Z,79.01
2017-07-10T20:23:54.489Z,80.22
2017-07-10T20:26:24.132Z,80.51
2017-07-10T20:28:53.438Z,81.86
2017-07-10T20:31:23.023Z,82.15
2017-07-10T20:33:52.526Z,83.26
2017-07-10T20:36:22.077Z,85.41
2017-07-10T20:38:51.545Z,85.97
2017-07-10T20:41:21.357Z,87.31
2017-07-10T20:43:51.085Z,88.00
2017-07-10T20:46:20.831Z,87.96
2017-07-10T20:48:50.686Z,87.42
2017-07-10T20:51:20.337Z,88.03
2017-07-10T20:53:50.073Z,88.00
2017-07-10T20:56:19.905Z,88.87
2017-07-10T20:58:49.594Z,89.10
2017-07-10T21:01:19.060Z,90.02
2017-07-10T21:03:48.995Z,90.88
2017-07-10T21:06:18.958Z,90.57
2017-07-10T21:08:48.624Z,91.05
2017-07-10T21:11:17.923Z,91.45
2017-07-10T21:13:47.503Z,91.22
2017-07-10T21:16:17.285Z,91.03
2017-07-10T21:18:46.913Z,90.68
2017-07-10T21:21:16.386Z,91.09
2017-07-10T21:23:45.849Z,91.78
2017-07-10T21:26:15.666Z,92.15
2017-07-10T21:28:45.396Z,92.02
2017-07-10T21:31:15.091Z,91.90
2017-07-10T21:33:44.563Z,91.45
2017-07-10T21:36:14.392Z,90.30
2017-07-10T21:38:44.163Z,90.84
2017-07-10T21:41:13.974Z,90.36
2017-07-10T21:43:43.514Z,89.55
2017-07-10T21:46:13.012Z,89.90
2017-07-10T21:48:42.701Z,90.67
2017-07-10T21:51:12.439Z,90.38
2017-07-10T21:53:42.008Z,90.48
2017-07-10T21:56:11.622Z,90.52
2017-07-10T21:58:41.073Z,91.20
2017-07-10T22:01:10.598Z,91.56
2017-07-10T22:03:40.293Z,91.91
2017-07-10T22:06:09.762Z,91.37
2017-07-10T22:08:40.279Z,90.83
2017-07-10T22:11:09.987Z,91.30
2017-07-10T22:13:39.423Z,92.05
2017-07-10T22:16:08.878Z,91.28
2017-07-10T22:18:38.358Z,91.32
2017-07-10T22:21:07.815Z,90.08
2017-07-10T22:23:37.299Z,90.51
2017-07-10T22:26:06.758Z,90.40
2017-07-10T22:28:36.213Z,89.45
2017-07-10T22:31:05.647Z,89.61
2017-07-10T22:33:35.099Z,89.63
2017-07-10T22:36:04.542Z,90.11
2017-07-10T22:38:33.983Z,89.85
2017-07-10T22:41:03.433Z,90.26
2017-07-10T22:43:32.886Z,90.04
2017-07-10T22:46:02.362Z,90.08
2017-07-10T22:48:31.822Z,89.17
2017-07-10T22:51:01.266Z,89.04
2017-07-10T22:53:30.706Z,89.02
2017-07-10T22:56:00.185Z,89.72
2017-07-10T22:58:29.629Z,89.71
2017-07-10T23:00:59.077Z,89.21
2017-07-10T23:03:28.536Z,88.95
2017-07-10T23:05:57.989Z,89.19
2017-07-10T23:08:27.451Z,89.62
2017-07-10T23:10:56.931Z,89.43
2017-07-10T23:13:26.373Z,89.29
2017-07-10T23:15:55.832Z,89.52
2017-07-10T23:18:25.284Z,87.80
2017-07-10T23:20:54.735Z,88.25
2017-07-10T23:23:24.210Z,88.18
2017-07-10T23:25:53.650Z,87.74
2017-07-10T23:28:23.089Z,86.90
2017-07-10T23:30:52.548Z,86.66
2017-07-10T23:33:22.028Z,86.23
2017-07-10T23:35:51.471Z,86.47
2017-07-10T23:38:20.910Z,85.14
2017-07-10T23:40:50.365Z,86.62
2017-07-10T23:43:19.820Z,86.62
2017-07-10T23:45:50.209Z,87.14
2017-07-10T23:48:19.648Z,87.49
2017-07-10T23:50:49.103Z,87.39
2017-07-10T23:53:18.546Z,86.81
2017-07-10T23:55:47.997Z,86.38
2017-07-10T23:58:17.453Z,86.30
